createdAt,value
2019-03-23T00:01:36.756Z,54.60
2019-03-23T00:04:06.862Z,52.50
2019-03-23T00:06:37.197Z,51.80
2019-03-23T00:09:07.481Z,52.43
2019-03-23T00:11:37.905Z,53.90
2019-03-23T00:14:08.061Z,52.50
2019-03-23T00:16:38.567Z,53.33
2019-03-23T00:19:08.969Z,52.53
2019-03-23T00:21:39.333Z,56.10
2019-03-23T00:24:09.949Z,54.00
2019-03-23T00:26:40.060Z,53.53
2019-03-23T00:29:10.208Z,57.60
2019-03-23T00:31:40.292Z,56.67
2019-03-23T00:34:10.472Z,55.60
2019-03-23T00:36:41.851Z,53.40
2019-03-23T00:39:12.313Z,51.40
2019-03-23T00:41:42.537Z,55.43
2019-03-23T00:44:12.768Z,56.33
2019-03-23T00:46:42.870Z,55.40
2019-03-23T00:49:13.076Z,56.63
2019-03-23T00:51:43.522Z,55.30
2019-03-23T00:54:14.200Z,56.23
2019-03-23T00:56:44.395Z,54.40
2019-03-23T00:59:15.608Z,57.20
2019-03-23T01:01:45.776Z,56.07
2019-03-23T01:04:16.697Z,56.40
2019-03-23T01:06:52.069Z,53.43
2019-03-23T01:09:18.724Z,56.30
2019-03-23T01:11:51.029Z,57.03
2019-03-23T01:14:23.482Z,55.20
2019-03-23T01:16:56.394Z,55.00
2019-03-23T01:19:28.572Z,57.90
2019-03-23T01:22:00.989Z,57.17
2019-03-23T01:24:33.099Z,57.17
2019-03-23T01:27:03.481Z,56.53
2019-03-23T01:29:34.102Z,56.40
2019-03-23T01:32:06.158Z,56.40
2019-03-23T01:34:38.356Z,56.07
2019-03-23T01:37:09.042Z,57.07
2019-03-23T01:39:41.355Z,58.70
2019-03-23T01:42:11.942Z,55.00
2019-03-23T01:44:42.433Z,57.90
2019-03-23T01:47:14.487Z,59.00
2019-03-23T01:49:46.678Z,57.10
2019-03-23T01:52:16.900Z,56.63
2019-03-23T01:54:49.111Z,55.40
2019-03-23T01:57:21.618Z,54.77
2019-03-23T01:59:51.833Z,51.20
2019-03-23T02:02:23.515Z,51.10
2019-03-23T02:04:54.196Z,52.20
2019-03-23T02:07:26.941Z,49.90
2019-03-23T02:09:59.404Z,46.83
2019-03-23T02:12:29.505Z,45.40
2019-03-23T02:15:00.320Z,45.07
2019-03-23T02:17:30.630Z,47.30
2019-03-23T02:20:03.094Z,41.50
2019-03-23T02:22:35.537Z,44.03
2019-03-23T02:25:09.007Z,44.00
2019-03-23T02:27:41.762Z,43.67
2019-03-23T02:30:15.542Z,44.17
2019-03-23T02:32:45.530Z,44.77
2019-03-23T02:35:14.896Z,38.13
2019-03-23T02:37:44.312Z,40.53
2019-03-23T02:40:14.125Z,40.00
2019-03-23T02:42:43.754Z,40.03
2019-03-23T02:45:13.683Z,41.63
2019-03-23T02:47:44.458Z,41.47
2019-03-23T02:50:17.186Z,41.77
2019-03-23T02:52:46.731Z,39.27
2019-03-23T02:55:19.654Z,38.33
2019-03-23T02:57:52.113Z,39.93
2019-03-23T03:00:27.482Z,37.73
2019-03-23T03:02:58.909Z,37.57
2019-03-23T03:05:31.452Z,38.57
2019-03-23T03:08:01.046Z,38.77
2019-03-23T03:10:40.285Z,35.80
2019-03-23T03:13:09.737Z,38.87
2019-03-23T03:15:42.038Z,40.23
2019-03-23T03:18:14.460Z,42.10
2019-03-23T03:20:47.000Z,39.53
2019-03-23T03:23:19.552Z,40.00
2019-03-23T03:25:49.878Z,41.60
2019-03-23T03:28:19.643Z,39.43
2019-03-23T03:30:52.347Z,44.47
2019-03-23T03:33:25.876Z,41.20
2019-03-23T03:35:55.359Z,42.23
2019-03-23T03:38:24.735Z,43.00
2019-03-23T03:40:55.824Z,42.37
2019-03-23T03:43:28.679Z,41.53
2019-03-23T03:45:59.057Z,44.70
2019-03-23T03:48:28.939Z,42.50
2019-03-23T03:50:58.388Z,45.03
2019-03-23T03:53:27.867Z,42.43
2019-03-23T03:55:57.897Z,47.57
2019-03-23T03:58:28.170Z,45.30
2019-03-23T04:01:00.819Z,40.23
2019-03-23T04:03:33.437Z,44.80
2019-03-23T04:06:06.086Z,44.60
2019-03-23T04:08:38.633Z,41.63
2019-03-23T04:11:11.178Z,43.10
2019-03-23T04:13:42.311Z,41.57
2019-03-23T04:16:12.697Z,41.17
2019-03-23T04:18:45.384Z,47.83
2019-03-23T04:21:15.805Z,44.43
2019-03-23T04:23:47.733Z,46.63
2019-03-23T04:26:21.448Z,44.10
2019-03-23T04:28:53.428Z,43.23
2019-03-23T04:31:25.480Z,43.57
2019-03-23T04:33:57.945Z,42.67
2019-03-23T04:36:32.164Z,40.27
2019-03-23T04:39:06.277Z,42.47
2019-03-23T04:41:38.782Z,43.43
2019-03-23T04:44:08.887Z,45.03
2019-03-23T04:46:39.076Z,44.77
2019-03-23T04:49:09.282Z,42.10
2019-03-23T04:51:39.576Z,45.23
2019-03-23T04:54:09.984Z,46.97
2019-03-23T04:56:40.098Z,45.63
2019-03-23T04:59:10.226Z,47.43
2019-03-23T05:01:40.370Z,44.93
2019-03-23T05:04:10.569Z,45.40
2019-03-23T05:06:42.604Z,41.63
2019-03-23T05:09:15.464Z,44.90
2019-03-23T05:11:45.658Z,43.77
2019-03-23T05:14:23.590Z,42.50
2019-03-23T05:16:53.792Z,41.20
2019-03-23T05:19:26.614Z,39.73
2019-03-23T05:22:02.142Z,40.93
2019-03-23T05:24:32.973Z,39.83
2019-03-23T05:27:05.639Z,39.90
2019-03-23T05:29:38.228Z,41.77
2019-03-23T05:32:12.983Z,40.33
2019-03-23T05:34:43.409Z,39.63
2019-03-23T05:37:17.771Z,43.10
2019-03-23T05:39:50.938Z,39.47
2019-03-23T05:42:23.804Z,38.20
2019-03-23T05:44:57.588Z,43.93
2019-03-23T05:47:27.818Z,42.73
2019-03-23T05:49:58.373Z,46.53
2019-03-23T05:52:31.849Z,40.50
2019-03-23T05:55:02.919Z,40.17
2019-03-23T05:57:33.773Z,38.03
2019-03-23T06:00:05.455Z,42.90
2019-03-23T06:02:40.801Z,34.67
2019-03-23T06:05:12.499Z,41.37
2019-03-23T06:07:42.964Z,37.83
2019-03-23T06:10:13.593Z,38.10
2019-03-23T06:12:44.823Z,39.37
2019-03-23T06:15:15.525Z,41.70
2019-03-23T06:17:46.051Z,42.97
2019-03-23T06:20:16.863Z,45.57
2019-03-23T06:22:50.014Z,42.73
2019-03-23T06:25:20.970Z,38.27
2019-03-23T06:27:53.452Z,41.90
2019-03-23T06:30:23.637Z,38.77
2019-03-23T06:32:53.816Z,40.80
2019-03-23T06:35:24.048Z,42.83
2019-03-23T06:37:54.271Z,40.80
2019-03-23T06:40:24.728Z,41.67
2019-03-23T06:42:59.672Z,34.77
2019-03-23T06:45:27.184Z,36.97
2019-03-23T06:47:57.339Z,39.17
2019-03-23T06:50:27.413Z,38.80
2019-03-23T06:53:00.941Z,38.50
2019-03-23T06:55:37.084Z,38.33
2019-03-23T06:58:07.266Z,40.57
2019-03-23T07:00:37.505Z,34.57
2019-03-23T07:03:07.831Z,34.53
2019-03-23T07:05:38.240Z,34.20
2019-03-23T07:08:08.658Z,34.87
2019-03-23T07:10:39.173Z,33.37
2019-03-23T07:13:09.350Z,35.37
2019-03-23T07:15:45.348Z,37.50
2019-03-23T07:18:26.099Z,40.37
2019-03-23T07:20:57.625Z,38.63
2019-03-23T07:23:38.037Z,37.60
2019-03-23T07:26:08.142Z,41.63
2019-03-23T07:28:38.321Z,37.43
2019-03-23T07:31:11.247Z,37.63
2019-03-23T07:33:48.304Z,37.03
2019-03-23T07:36:18.388Z,38.63
2019-03-23T07:38:48.566Z,36.43
2019-03-23T07:41:19.505Z,37.77
2019-03-23T07:43:49.675Z,36.93
2019-03-23T07:46:20.341Z,36.13
2019-03-23T07:48:51.348Z,37.87
2019-03-23T07:51:29.283Z,35.83
2019-03-23T07:54:06.417Z,36.17
2019-03-23T07:56:41.587Z,36.33
2019-03-23T07:59:12.000Z,35.03
2019-03-23T08:01:45.692Z,35.43
2019-03-23T08:04:15.816Z,37.10
2019-03-23T08:06:46.514Z,37.83
2019-03-23T08:09:20.623Z,37.47
2019-03-23T08:11:48.552Z,36.17
2019-03-23T08:14:18.654Z,37.30
2019-03-23T08:16:49.198Z,32.47
2019-03-23T08:19:23.619Z,36.63
2019-03-23T08:21:54.091Z,36.70
2019-03-23T08:24:24.296Z,36.27
2019-03-23T08:26:54.450Z,36.57
2019-03-23T08:29:24.929Z,36.60
2019-03-23T08:31:55.548Z,35.60
2019-03-23T08:34:26.085Z,34.73
2019-03-23T08:36:57.113Z,37.23
2019-03-23T08:39:27.444Z,35.40
2019-03-23T08:41:57.679Z,35.43
2019-03-23T08:44:27.852Z,34.80
2019-03-23T08:47:07.286Z,36.40
2019-03-23T08:49:37.634Z,35.97
2019-03-23T08:52:07.916Z,36.63
2019-03-23T08:54:38.080Z,32.70
2019-03-23T08:57:08.302Z,32.50
2019-03-23T08:59:38.457Z,31.77
2019-03-23T09:02:09.957Z,34.43
2019-03-23T09:04:40.403Z,35.23
2019-03-23T09:07:10.940Z,32.37
2019-03-23T09:09:42.518Z,34.27
2019-03-23T09:12:17.005Z,33.43
2019-03-23T09:14:47.742Z,33.20
2019-03-23T09:17:22.680Z,33.77
2019-03-23T09:19:53.455Z,33.63
2019-03-23T09:22:23.701Z,30.80
2019-03-23T09:24:56.941Z,35.40
2019-03-23T09:27:30.726Z,37.10
2019-03-23T09:30:01.713Z,33.30
2019-03-23T09:32:32.088Z,35.00
2019-03-23T09:35:03.819Z,35.27
2019-03-23T09:37:38.315Z,36.50
2019-03-23T09:40:11.114Z,35.10
2019-03-23T09:42:39.903Z,33.70
2019-03-23T09:45:20.384Z,32.90
2019-03-23T09:47:50.894Z,35.93
2019-03-23T09:50:24.789Z,33.43
2019-03-23T09:52:56.581Z,32.90
2019-03-23T09:55:28.716Z,32.90
2019-03-23T09:58:04.724Z,34.40
2019-03-23T10:00:35.070Z,33.17
2019-03-23T10:03:05.345Z,33.50
2019-03-23T10:05:35.748Z,34.03
2019-03-23T10:08:06.379Z,33.77
2019-03-23T10:10:37.042Z,36.07
2019-03-23T10:13:07.269Z,32.50
2019-03-23T10:15:37.641Z,35.00
2019-03-23T10:18:07.885Z,35.23
2019-03-23T10:20:38.501Z,34.67
2019-03-23T10:23:09.272Z,35.40
2019-03-23T10:25:39.448Z,33.53
2019-03-23T10:28:09.597Z,33.17
2019-03-23T10:30:39.864Z,35.13
2019-03-23T10:33:11.868Z,33.03
2019-03-23T10:35:45.383Z,32.57
2019-03-23T10:38:16.448Z,32.30
2019-03-23T10:40:47.069Z,33.30
2019-03-23T10:43:17.400Z,35.23
2019-03-23T10:45:47.760Z,36.17
2019-03-23T10:48:18.174Z,36.87
2019-03-23T10:50:49.173Z,34.93
2019-03-23T10:53:23.188Z,34.70
2019-03-23T10:55:53.525Z,36.90
2019-03-23T10:58:23.721Z,35.97
2019-03-23T11:00:53.952Z,33.87
2019-03-23T11:03:24.119Z,34.97
2019-03-23T11:05:54.728Z,33.90
2019-03-23T11:08:24.950Z,35.77
2019-03-23T11:10:56.423Z,35.57
2019-03-23T11:13:26.856Z,35.50
2019-03-23T11:15:58.774Z,37.20
2019-03-23T11:18:29.234Z,34.27
2019-03-23T11:21:00.172Z,33.30
2019-03-23T11:23:30.911Z,33.93
2019-03-23T11:26:01.150Z,33.53
2019-03-23T11:28:31.360Z,37.37
2019-03-23T11:31:03.389Z,36.50
2019-03-23T11:33:33.617Z,34.93
2019-03-23T11:36:03.727Z,38.37
2019-03-23T11:38:34.103Z,36.97
2019-03-23T11:41:07.009Z,35.40
2019-03-23T11:43:37.718Z,34.17
2019-03-23T11:46:07.946Z,36.50
2019-03-23T11:48:38.515Z,35.57
2019-03-23T11:51:10.144Z,33.40
2019-03-23T11:53:40.304Z,35.57
2019-03-23T11:56:10.468Z,34.40
2019-03-23T11:58:40.757Z,38.10
2019-03-23T12:01:10.902Z,37.07
2019-03-23T12:03:41.024Z,34.40
2019-03-23T12:06:11.251Z,36.80
2019-03-23T12:08:41.918Z,35.23
2019-03-23T12:11:12.117Z,34.53
2019-03-23T12:13:42.389Z,34.83
2019-03-23T12:16:12.817Z,33.90
2019-03-23T12:18:43.303Z,33.63
2019-03-23T12:21:13.665Z,34.10
2019-03-23T12:23:43.995Z,35.50
2019-03-23T12:26:14.160Z,35.30
2019-03-23T12:28:44.340Z,34.80
2019-03-23T12:31:15.484Z,35.37
2019-03-23T12:33:45.790Z,36.07
2019-03-23T12:36:16.184Z,35.00
2019-03-23T12:38:46.882Z,36.33
2019-03-23T12:41:23.017Z,34.23
2019-03-23T12:43:50.132Z,35.93
2019-03-23T12:46:20.609Z,35.17
2019-03-23T12:48:51.003Z,32.57
2019-03-23T12:51:23.156Z,30.10
2019-03-23T12:53:53.917Z,27.87
2019-03-23T12:56:24.016Z,28.93
2019-03-23T12:58:54.549Z,28.50
2019-03-23T13:01:25.940Z,27.70
2019-03-23T13:03:56.056Z,28.07
2019-03-23T13:06:26.461Z,25.77
2019-03-23T13:08:56.569Z,26.93
2019-03-23T13:11:34.757Z,26.03
2019-03-23T13:13:58.907Z,23.07
2019-03-23T13:16:29.019Z,23.67
2019-03-23T13:18:59.634Z,24.97
2019-03-23T13:21:29.809Z,20.57
2019-03-23T13:24:00.006Z,22.67
2019-03-23T13:26:30.419Z,21.50
2019-03-23T13:29:00.980Z,20.40
2019-03-23T13:31:31.112Z,19.70
2019-03-23T13:34:01.330Z,18.93
2019-03-23T13:36:34.113Z,16.60
2019-03-23T13:39:06.412Z,14.00
2019-03-23T13:41:41.325Z,14.53
2019-03-23T13:44:08.312Z,10.40
2019-03-23T13:46:39.031Z,10.23
2019-03-23T13:49:09.652Z,10.00
2019-03-23T13:51:41.611Z,9.50
2019-03-23T13:54:13.517Z,7.90
2019-03-23T13:56:43.785Z,8.20
2019-03-23T13:59:18.230Z,7.33
2019-03-23T14:01:48.570Z,6.93
2019-03-23T14:04:20.219Z,4.60
2019-03-23T14:06:50.606Z,4.90
2019-03-23T14:09:20.849Z,5.20
2019-03-23T14:11:55.129Z,4.03
2019-03-23T14:14:25.752Z,2.67
2019-03-23T14:16:56.454Z,2.40
2019-03-23T14:19:28.356Z,2.63
2019-03-23T14:22:05.495Z,2.70
2019-03-23T14:24:36.699Z,2.40
2019-03-23T14:27:07.663Z,2.00
2019-03-23T14:29:39.878Z,2.23
2019-03-23T14:32:10.440Z,2.50
2019-03-23T14:34:41.500Z,1.90
2019-03-23T14:37:12.056Z,2.13
2019-03-23T14:39:42.183Z,2.73
2019-03-23T14:42:14.383Z,2.10
2019-03-23T14:44:44.849Z,2.27
2019-03-23T14:47:15.512Z,1.80
2019-03-23T14:49:46.065Z,1.60
2019-03-23T14:52:16.437Z,2.73
2019-03-23T14:54:46.947Z,1.77
2019-03-23T14:57:17.604Z,1.70
2019-03-23T14:59:48.112Z,1.90
2019-03-23T15:02:18.940Z,1.77
2019-03-23T15:04:49.501Z,2.37
2019-03-23T15:07:22.825Z,1.93
2019-03-23T15:09:53.196Z,2.33
2019-03-23T15:12:23.505Z,2.17
2019-03-23T15:14:53.916Z,2.80
2019-03-23T15:17:26.177Z,2.20
2019-03-23T15:19:56.700Z,2.23
2019-03-23T15:22:27.098Z,1.70
2019-03-23T15:24:57.876Z,2.63
2019-03-23T15:27:30.430Z,2.47
2019-03-23T15:30:01.025Z,1.70
2019-03-23T15:32:31.253Z,2.37
2019-03-23T15:35:01.775Z,2.53
2019-03-23T15:37:32.174Z,2.40
2019-03-23T15:40:02.474Z,2.27
2019-03-23T15:42:32.740Z,2.57
2019-03-23T15:45:03.164Z,2.47
2019-03-23T15:47:33.731Z,3.30
2019-03-23T15:50:04.505Z,2.40
2019-03-23T15:52:34.911Z,3.20
2019-03-23T15:55:06.586Z,2.77
2019-03-23T15:57:37.636Z,2.80
2019-03-23T16:00:09.202Z,3.10
2019-03-23T16:02:39.759Z,3.90
2019-03-23T16:05:11.102Z,2.80
2019-03-23T16:07:41.838Z,2.70
2019-03-23T16:10:12.346Z,2.90
2019-03-23T16:12:43.564Z,3.60
2019-03-23T16:15:14.010Z,2.87
2019-03-23T16:17:44.867Z,2.33
2019-03-23T16:20:15.427Z,2.70
2019-03-23T16:22:46.633Z,3.00
2019-03-23T16:25:16.859Z,3.43
2019-03-23T16:27:47.140Z,4.10
2019-03-23T16:30:31.472Z,3.53
2019-03-23T16:33:03.308Z,3.00
2019-03-23T16:35:35.584Z,3.57
2019-03-23T16:38:07.525Z,2.43
2019-03-23T16:40:38.069Z,2.90
2019-03-23T16:43:08.540Z,2.70
2019-03-23T16:45:38.905Z,3.73
2019-03-23T16:48:09.293Z,3.83
2019-03-23T16:50:39.616Z,3.00
2019-03-23T16:53:09.890Z,3.23
2019-03-23T16:55:40.448Z,3.30
2019-03-23T16:58:15.957Z,2.83
2019-03-23T17:00:43.398Z,2.93
2019-03-23T17:03:13.707Z,2.73
2019-03-23T17:05:44.128Z,3.40
2019-03-23T17:08:14.395Z,3.43
2019-03-23T17:10:45.121Z,3.10
2019-03-23T17:13:17.097Z,3.10
2019-03-23T17:15:47.421Z,3.50
2019-03-23T17:18:17.672Z,2.87
2019-03-23T17:20:47.941Z,3.10
2019-03-23T17:23:18.053Z,3.73
2019-03-23T17:25:48.271Z,4.30
2019-03-23T17:28:18.425Z,3.40
2019-03-23T17:30:48.658Z,2.97
2019-03-23T17:33:19.026Z,3.70
2019-03-23T17:35:49.348Z,4.03
2019-03-23T17:38:21.149Z,3.83
2019-03-23T17:40:51.345Z,4.23
2019-03-23T17:43:21.637Z,3.40
2019-03-23T17:45:52.092Z,3.93
2019-03-23T17:48:23.662Z,3.87
2019-03-23T17:50:53.838Z,3.40
2019-03-23T17:53:24.300Z,3.70
2019-03-23T17:55:54.405Z,4.20
2019-03-23T17:58:24.674Z,3.63
2019-03-23T18:00:55.430Z,4.73
2019-03-23T18:03:25.609Z,2.93
2019-03-23T18:05:56.035Z,3.43
2019-03-23T18:08:26.208Z,4.10
2019-03-23T18:10:56.334Z,4.07
2019-03-23T18:13:26.857Z,4.33
2019-03-23T18:15:57.413Z,5.00
2019-03-23T18:18:28.276Z,4.67
2019-03-23T18:20:58.403Z,4.60
2019-03-23T18:23:28.872Z,5.50
2019-03-23T18:25:59.030Z,29.20
2019-03-23T18:28:30.598Z,6.47
2019-03-23T18:31:00.787Z,4.03
2019-03-23T18:33:31.290Z,4.77
2019-03-23T18:36:01.716Z,4.50
2019-03-23T18:38:31.929Z,4.70
2019-03-23T18:41:02.293Z,5.10
2019-03-23T18:43:32.779Z,4.63
2019-03-23T18:46:03.410Z,5.47
2019-03-23T18:48:33.834Z,4.63
2019-03-23T18:51:04.148Z,3.57
2019-03-23T18:53:34.880Z,3.93
2019-03-23T18:56:06.122Z,6.43
2019-03-23T18:58:36.484Z,4.10
2019-03-23T19:01:09.204Z,5.17
2019-03-23T19:03:40.418Z,4.97
2019-03-23T19:06:10.951Z,6.23
2019-03-23T19:08:41.272Z,4.33
2019-03-23T19:11:11.894Z,5.10
2019-03-23T19:13:42.218Z,6.90
2019-03-23T19:16:12.464Z,5.90
2019-03-23T19:18:44.651Z,5.40
2019-03-23T19:21:15.061Z,5.17
2019-03-23T19:23:45.534Z,4.90
2019-03-23T19:26:15.628Z,8.03
2019-03-23T19:28:45.811Z,6.40
2019-03-23T19:31:16.024Z,6.07
2019-03-23T19:33:46.592Z,19.83
2019-03-23T19:36:16.869Z,7.90
2019-03-23T19:38:47.373Z,5.40
2019-03-23T19:41:17.635Z,4.30
2019-03-23T19:43:49.790Z,7.00
2019-03-23T19:46:21.272Z,9.33
2019-03-23T19:48:51.584Z,5.63
2019-03-23T19:51:23.540Z,5.40
2019-03-23T19:53:53.887Z,5.63
2019-03-23T19:56:24.389Z,5.83
2019-03-23T19:58:54.555Z,4.83
2019-03-23T20:01:24.749Z,5.40
2019-03-23T20:03:55.439Z,5.90
2019-03-23T20:06:25.691Z,5.20
2019-03-23T20:08:55.885Z,5.20
2019-03-23T20:11:26.149Z,5.97
2019-03-23T20:13:58.985Z,6.07
2019-03-23T20:16:28.483Z,6.10
2019-03-23T20:18:59.022Z,5.33
2019-03-23T20:21:29.567Z,4.83
2019-03-23T20:23:59.740Z,6.23
2019-03-23T20:26:29.915Z,5.33
2019-03-23T20:29:00.158Z,5.47
2019-03-23T20:31:30.304Z,5.00
2019-03-23T20:34:00.452Z,8.57
2019-03-23T20:36:30.673Z,6.33
2019-03-23T20:39:01.244Z,6.23
2019-03-23T20:41:31.459Z,6.13
2019-03-23T20:44:09.061Z,5.00
2019-03-23T20:46:33.985Z,5.30
2019-03-23T20:49:04.252Z,5.03
2019-03-23T20:51:34.766Z,5.67
2019-03-23T20:54:05.215Z,6.20
2019-03-23T20:56:35.739Z,5.43
2019-03-23T20:59:05.945Z,5.60
2019-03-23T21:01:36.146Z,7.10
2019-03-23T21:04:06.585Z,5.30
2019-03-23T21:06:36.812Z,6.63
2019-03-23T21:09:07.980Z,6.77
2019-03-23T21:11:38.765Z,4.90
2019-03-23T21:14:19.603Z,6.00
2019-03-23T21:16:43.697Z,5.40
2019-03-23T21:19:13.942Z,5.73
2019-03-23T21:21:44.156Z,6.67
2019-03-23T21:24:16.041Z,6.03
2019-03-23T21:26:46.226Z,7.13
2019-03-23T21:29:16.447Z,9.23
2019-03-23T21:31:46.680Z,6.33
2019-03-23T21:34:17.142Z,6.17
2019-03-23T21:36:47.262Z,5.83
2019-03-23T21:39:17.464Z,6.10
2019-03-23T21:41:47.652Z,5.73
2019-03-23T21:44:17.881Z,5.83
2019-03-23T21:46:48.134Z,7.03
2019-03-23T21:49:18.278Z,5.97
2019-03-23T21:51:48.506Z,5.37
2019-03-23T21:54:18.612Z,7.97
2019-03-23T21:56:48.743Z,5.53
2019-03-23T21:59:18.942Z,5.80
2019-03-23T22:01:49.174Z,5.73
2019-03-23T22:04:24.080Z,5.90
2019-03-23T22:06:54.280Z,4.97
2019-03-23T22:09:24.532Z,6.40
2019-03-23T22:11:54.763Z,5.77
2019-03-23T22:14:25.038Z,5.33
2019-03-23T22:16:55.320Z,6.13
2019-03-23T22:19:25.481Z,6.43
2019-03-23T22:21:55.841Z,5.73
2019-03-23T22:24:26.112Z,5.77
2019-03-23T22:26:56.259Z,5.60
2019-03-23T22:29:27.305Z,5.80
2019-03-23T22:31:57.482Z,5.00
2019-03-23T22:34:28.778Z,6.57
2019-03-23T22:36:59.165Z,6.00
2019-03-23T22:39:29.870Z,6.43
2019-03-23T22:42:00.017Z,5.17
2019-03-23T22:44:30.149Z,5.80
2019-03-23T22:47:00.516Z,5.73
2019-03-23T22:49:30.634Z,5.83
2019-03-23T22:52:00.989Z,5.10
2019-03-23T22:54:31.300Z,5.87
2019-03-23T22:57:01.548Z,6.37
2019-03-23T22:59:31.678Z,5.83
2019-03-23T23:02:02.241Z,5.10
2019-03-23T23:04:33.716Z,5.70
2019-03-23T23:07:03.894Z,4.23
2019-03-23T23:09:34.112Z,5.40
2019-03-23T23:12:04.739Z,4.90
2019-03-23T23:14:34.880Z,5.33
2019-03-23T23:17:05.336Z,5.43
2019-03-23T23:19:35.472Z,4.80
2019-03-23T23:22:05.693Z,6.47
2019-03-23T23:24:35.815Z,6.10
2019-03-23T23:27:06.808Z,6.57
2019-03-23T23:29:36.915Z,6.83
2019-03-23T23:32:07.122Z,5.50
2019-03-23T23:34:37.312Z,7.80
2019-03-23T23:37:09.189Z,5.93
2019-03-23T23:39:39.511Z,6.20
2019-03-23T23:42:09.919Z,7.77
2019-03-23T23:44:40.043Z,6.57
2019-03-23T23:47:10.200Z,5.53
2019-03-23T23:49:40.580Z,6.07
2019-03-23T23:52:10.683Z,5.00
2019-03-23T23:54:40.800Z,5.87
2019-03-23T23:57:11.136Z,5.03
2019-03-23T23:59:41.240Z,5.70
